Time;durP1;ratioP1;P1;durP2;ratioP2;P2;SDS_P1;SDS_P2;PMS_P1;PMS_P2;Temp;Humidity;BMP_temperature;BMP_pressure;BME280_temperature;BME280_humidity;BME280_pressure;Samples;Min_cycle;Max_cycle;Signal;HPM_P1;HPM_P2
2022/05/10 12:08:19;;;;;;;;;;;;;;;;;;5153338;27;9772;-41
2022/05/10 12:10:47;;;;;;;;;;;;;;;;;;5159044;27;10070;-37
2022/05/10 14:54:35;;;;;;;8.23;3.03;;;;;;;;;;5181769;27;20741;-64
2022/05/10 14:57:04;;;;;;;2.83;1.17;;;;;;;;;;5125838;27;20039;-67
2022/05/10 14:59:53;;;;;;;3.55;1.17;;;;;;;;;;5122165;28;65846;-64
2022/05/10 15:02:26;;;;;;;4.95;1.30;;;;;;;;;;5123528;28;20044;-62
2022/05/10 15:04:55;;;;;;;4.28;1.27;;;;;;;;;;5125830;28;20122;-61
2022/05/10 15:07:22;;;;;;;17.15;9.52;;;;;;;;;;5128294;28;20442;-61
2022/05/10 15:09:50;;;;;;;2.78;1.10;;;;;;;;;;5128097;28;20110;-62
2022/05/10 15:15:06;;;;;;;5.13;1.85;;;;;;;;;;5127409;28;20122;-62
2022/05/10 15:18:58;;;;;;;3.80;0.95;;;;;;;;;;5124530;28;20088;-61
2022/05/10 15:20:23;;;;;;;4.35;1.13;;;;;;;;;;5128520;27;20145;-61
2022/05/10 15:22:50;;;;;;;4.60;1.42;;;;;;;;;;5127187;28;20050;-61
2022/05/10 15:25:18;;;;;;;3.90;0.93;;;;;;;;;;5128578;27;20507;-61
2022/05/10 15:27:46;;;;;;;3.15;1.10;;;;;;;;;;5128596;27;20035;-61
2022/05/10 15:30:17;;;;;;;2.85;1.10;;;;;;;;;;5128531;27;20408;-62
2022/05/10 15:32:44;;;;;;;5.65;1.40;;;;;;;;;;5128339;27;20044;-62
2022/05/10 15:35:12;;;;;;;2.45;1.35;;;;;;;;;;5128568;27;20039;-62
2022/05/10 15:37:42;;;;;;;4.28;1.48;;;;;;;;;;5128243;28;20043;-61
2022/05/10 15:40:12;;;;;;;3.85;2.20;;;;;;;;;;5128374;27;20088;-61
2022/05/10 15:42:41;;;;;;;5.50;2.42;;;;;;;;;;5127148;28;20039;-62
2022/05/10 15:45:09;;;;;;;8.82;5.57;;;;;;;;;;5128354;27;20467;-60
2022/05/10 15:47:40;;;;;;;9.38;4.88;;;;;;;;;;5128095;27;20052;-61
2022/05/10 15:50:13;;;;;;;7.05;3.97;;;;;;;;;;5127761;27;20107;-61
2022/05/10 15:52:40;;;;;;;10.85;5.60;;;;;;;;;;5127990;27;20086;-61
2022/05/10 15:55:08;;;;;;;33.28;26.45;;;;;;;;;;5127935;27;20039;-62
2022/05/10 15:57:37;;;;;;;5.60;1.83;;;;;;;;;;5116177;28;20133;-62
2022/05/10 16:00:08;;;;;;;32.65;29.35;;;;;;;;;;5107387;28;20035;-64
2022/05/10 16:02:44;;;;;;;42.42;34.00;;;;;;;;;;5107242;28;20143;-63
2022/05/10 16:05:12;;;;;;;19.02;15.85;;;;;;;;;;5096148;28;20048;-62
2022/05/10 16:07:40;;;;;;;29.13;15.65;;;;;;;;;;5094057;28;20032;-66
2022/05/10 16:10:08;;;;;;;7.13;4.50;;;;;;;;;;5096831;28;20438;-64
2022/05/10 16:12:39;;;;;;;5.68;4.13;;;;;;;;;;5112641;28;20876;-63
2022/05/10 16:15:10;;;;;;;5.38;2.30;;;;;;;;;;5113971;28;20071;-64
2022/05/10 16:17:38;;;;;;;4.00;1.98;;;;;;;;;;5114037;28;20518;-63
2022/05/10 16:20:11;;;;;;;3.88;1.50;;;;;;;;;;5093356;28;20044;-63
2022/05/10 16:22:39;;;;;;;4.45;1.73;;;;;;;;;;5093339;28;20063;-63
2022/05/10 16:25:07;;;;;;;4.63;1.50;;;;;;;;;;5093243;28;20036;-63
2022/05/10 16:30:33;;;;;;;5.43;1.38;;;;;;;;;;5093148;28;20040;-62
2022/05/10 16:33:02;;;;;;;8.57;3.55;;;;;;;;;;5102548;28;20097;-63
2022/05/10 16:35:31;;;;;;;9.15;4.47;;;;;;;;;;5113438;28;20040;-63
2022/05/10 16:37:59;;;;;;;10.85;9.07;;;;;;;;;;5113463;28;20403;-62
2022/05/10 16:40:28;;;;;;;9.70;3.70;;;;;;;;;;5113278;28;20039;-62
2022/05/10 16:42:56;;;;;;;5.53;2.47;;;;;;;;;;5113461;28;20561;-62
2022/05/10 16:45:24;;;;;;;2.50;1.33;;;;;;;;;;5113236;28;20043;-62
2022/05/10 16:47:51;;;;;;;2.15;1.30;;;;;;;;;;5111920;28;20070;-62
2022/05/10 16:50:18;;;;;;;4.45;1.23;;;;;;;;;;5113256;28;20118;-62
2022/05/10 16:52:47;;;;;;;3.15;1.52;;;;;;;;;;5112848;28;20058;-62
2022/05/10 16:55:21;;;;;;;6.80;1.48;;;;;;;;;;5113074;27;20040;-63
2022/05/10 16:57:49;;;;;;;4.05;1.20;;;;;;;;;;5113174;28;20106;-63
2022/05/10 17:00:21;;;;;;;5.63;1.40;;;;;;;;;;5112892;28;20492;-62
2022/05/10 17:02:50;;;;;;;6.13;1.27;;;;;;;;;;5113009;28;20497;-64
2022/05/10 17:05:21;;;;;;;4.10;1.52;;;;;;;;;;5112908;28;20040;-63
2022/05/10 17:07:49;;;;;;;3.67;1.25;;;;;;;;;;5112920;28;20550;-62
2022/05/10 17:10:23;;;;;;;5.47;1.83;;;;;;;;;;5106500;28;20070;-62
2022/05/10 17:12:51;;;;;;;30.42;16.38;;;;;;;;;;5112750;28;20039;-68
2022/05/10 17:15:19;;;;;;;4.72;2.42;;;;;;;;;;5112499;28;20046;-62
2022/05/10 17:17:59;;;;;;;6.40;1.50;;;;;;;;;;5110836;28;20043;-64
2022/05/10 17:20:38;;;;;;;3.05;1.10;;;;;;;;;;5092263;28;20058;-66
2022/05/10 17:23:06;;;;;;;3.83;1.38;;;;;;;;;;5091022;28;20047;-63
2022/05/10 17:25:40;;;;;;;5.15;1.40;;;;;;;;;;5092100;28;20383;-63
2022/05/10 17:30:39;;;;;;;3.00;1.30;;;;;;;;;;5092259;28;20539;-64
2022/05/10 17:33:07;;;;;;;3.90;1.25;;;;;;;;;;5091840;28;20463;-64
2022/05/10 17:35:35;;;;;;;3.00;1.27;;;;;;;;;;5092119;28;20048;-62
2022/05/10 17:38:03;;;;;;;3.15;1.33;;;;;;;;;;5092069;28;20059;-63
2022/05/10 17:40:32;;;;;;;7.30;1.63;;;;;;;;;;5091872;28;20063;-65
2022/05/10 17:43:00;;;;;;;5.80;1.40;;;;;;;;;;5091784;28;20083;-63
2022/05/10 17:45:28;;;;;;;2.92;1.25;;;;;;;;;;5091898;28;20097;-63
2022/05/10 17:47:56;;;;;;;6.45;1.40;;;;;;;;;;5091860;28;20036;-64
2022/05/10 17:50:24;;;;;;;4.45;1.80;;;;;;;;;;5091654;28;20044;-67
2022/05/10 17:52:52;;;;;;;4.35;1.48;;;;;;;;;;5098033;28;20044;-66
2022/05/10 17:55:20;;;;;;;4.32;1.08;;;;;;;;;;5110488;28;20036;-64
2022/05/10 17:57:47;;;;;;;5.10;1.73;;;;;;;;;;5112071;28;20119;-66
2022/05/10 18:00:19;;;;;;;81.72;41.67;;;;;;;;;;5111741;28;20048;-66
2022/05/10 18:02:49;;;;;;;47.17;22.88;;;;;;;;;;5112043;28;20027;-66
2022/05/10 18:05:19;;;;;;;7.65;2.50;;;;;;;;;;5111817;27;20047;-65
2022/05/10 18:07:47;;;;;;;3.83;1.67;;;;;;;;;;5111776;28;20119;-65
2022/05/10 18:10:15;;;;;;;3.97;1.50;;;;;;;;;;5111800;28;20577;-65
2022/05/10 18:12:44;;;;;;;5.80;1.73;;;;;;;;;;5111895;28;20050;-63
2022/05/10 18:15:12;;;;;;;2.97;1.17;;;;;;;;;;5111854;28;20486;-63
2022/05/10 18:17:40;;;;;;;6.38;1.73;;;;;;;;;;5111663;28;20039;-65
2022/05/10 18:20:08;;;;;;;5.53;1.73;;;;;;;;;;5111564;28;20405;-64
2022/05/10 18:22:35;;;;;;;4.18;1.40;;;;;;;;;;5111580;28;20035;-65
2022/05/10 18:25:03;;;;;;;3.83;1.30;;;;;;;;;;5111572;28;20050;-66
2022/05/10 18:27:31;;;;;;;3.22;1.58;;;;;;;;;;5111320;28;20047;-66
2022/05/10 18:29:58;;;;;;;4.13;1.75;;;;;;;;;;5110277;28;20040;-63
2022/05/10 18:32:26;;;;;;;5.72;1.52;;;;;;;;;;5111367;28;20082;-65
2022/05/10 18:34:53;;;;;;;4.95;1.50;;;;;;;;;;5111107;28;20047;-65
2022/05/10 18:37:20;;;;;;;7.35;2.17;;;;;;;;;;5111468;28;20036;-67
2022/05/10 18:39:48;;;;;;;4.20;1.60;;;;;;;;;;5111381;28;20040;-65
2022/05/10 18:42:17;;;;;;;4.32;1.60;;;;;;;;;;5111350;28;20443;-67
2022/05/10 18:44:48;;;;;;;3.80;1.10;;;;;;;;;;5111152;28;20039;-64
2022/05/10 18:47:15;;;;;;;3.88;1.80;;;;;;;;;;5111110;28;20042;-65
2022/05/10 18:49:44;;;;;;;4.93;1.40;;;;;;;;;;5111423;28;20466;-64
2022/05/10 18:52:11;;;;;;;4.00;1.70;;;;;;;;;;5110945;28;20096;-64
2022/05/10 18:54:40;;;;;;;4.05;1.85;;;;;;;;;;5109911;28;20727;-66
2022/05/10 18:57:07;;;;;;;5.30;1.52;;;;;;;;;;5111261;28;20050;-65
2022/05/10 18:59:36;;;;;;;5.53;1.90;;;;;;;;;;5111189;28;20077;-68
2022/05/10 19:02:03;;;;;;;5.63;1.88;;;;;;;;;;5109538;28;20039;-63
2022/05/10 19:04:31;;;;;;;4.28;1.40;;;;;;;;;;5110979;28;20536;-65
2022/05/10 19:06:58;;;;;;;3.58;1.80;;;;;;;;;;5111172;28;20040;-64
2022/05/10 19:09:25;;;;;;;7.30;2.20;;;;;;;;;;5090637;28;20044;-64
2022/05/10 19:11:56;;;;;;;5.03;1.33;;;;;;;;;;5090541;28;20044;-63
2022/05/10 19:14:28;;;;;;;5.32;1.60;;;;;;;;;;5090293;28;20052;-65
2022/05/10 19:16:57;;;;;;;4.18;1.60;;;;;;;;;;5090716;28;20040;-64
2022/05/10 19:19:28;;;;;;;4.65;1.40;;;;;;;;;;5105315;28;20036;-64
2022/05/10 19:21:56;;;;;;;2.38;1.30;;;;;;;;;;5105966;28;20494;-67
2022/05/10 19:24:23;;;;;;;5.65;1.35;;;;;;;;;;5110591;28;20123;-68
2022/05/10 19:26:53;;;;;;;3.40;1.60;;;;;;;;;;5110800;28;20035;-65
2022/05/10 19:29:21;;;;;;;3.47;1.80;;;;;;;;;;5110732;28;20040;-63
2022/05/10 19:31:52;;;;;;;4.25;1.45;;;;;;;;;;5110785;28;20116;-64
2022/05/10 19:34:19;;;;;;;4.40;1.88;;;;;;;;;;5109458;28;20055;-63
2022/05/10 19:36:46;;;;;;;4.15;1.42;;;;;;;;;;5109374;28;20118;-66
2022/05/10 19:39:15;;;;;;;5.38;1.70;;;;;;;;;;5110120;28;20081;-63
2022/05/10 19:41:44;;;;;;;4.50;1.98;;;;;;;;;;5114670;28;20075;-63
2022/05/10 19:44:13;;;;;;;3.25;1.58;;;;;;;;;;5114751;28;20042;-65
2022/05/10 19:46:41;;;;;;;4.32;1.73;;;;;;;;;;5114485;28;20047;-66
2022/05/10 19:49:09;;;;;;;5.05;1.70;;;;;;;;;;5114587;28;20043;-65
2022/05/10 19:51:37;;;;;;;3.38;1.60;;;;;;;;;;5114390;28;20405;-64
2022/05/10 19:54:05;;;;;;;4.00;1.40;;;;;;;;;;5113971;28;20104;-65
2022/05/10 19:56:33;;;;;;;3.30;1.52;;;;;;;;;;5114299;28;20047;-67
2022/05/10 19:59:04;;;;;;;4.20;1.60;;;;;;;;;;5114383;28;20045;-62
2022/05/10 20:07:17;;;;;;;4.03;1.48;;;;;;;;;;5101622;28;20070;-64
2022/05/10 20:09:47;;;;;;;4.05;2.45;;;;;;;;;;5114112;28;20071;-63
2022/05/10 20:12:23;;;;;;;5.10;1.65;;;;;;;;;;5113933;28;20112;-66
2022/05/10 20:14:51;;;;;;;5.88;1.55;;;;;;;;;;5113588;28;20509;-67
2022/05/10 20:17:19;;;;;;;3.53;1.35;;;;;;;;;;5109073;28;20036;-67
2022/05/10 20:19:46;;;;;;;6.65;1.58;;;;;;;;;;5111361;28;20039;-67
2022/05/10 20:22:14;;;;;;;4.65;2.10;;;;;;;;;;5113960;28;20036;-65
2022/05/10 20:24:42;;;;;;;4.07;1.42;;;;;;;;;;5103030;28;20070;-66
2022/05/10 20:27:10;;;;;;;5.40;1.50;;;;;;;;;;5093632;28;20047;-66
2022/05/10 20:29:37;;;;;;;3.60;1.60;;;;;;;;;;5092041;28;20506;-67
2022/05/10 20:32:25;;;;;;;4.97;1.38;;;;;;;;;;5093239;28;20496;-66
2022/05/10 20:34:52;;;;;;;3.53;1.23;;;;;;;;;;5093114;28;20489;-65
2022/05/10 20:37:19;;;;;;;3.40;1.45;;;;;;;;;;5093111;28;20044;-66
2022/05/10 20:39:46;;;;;;;4.32;1.58;;;;;;;;;;5092977;28;20047;-65
2022/05/10 20:42:14;;;;;;;2.28;1.42;;;;;;;;;;5093125;28;20528;-65
2022/05/10 20:44:41;;;;;;;3.40;1.20;;;;;;;;;;5092077;28;20040;-67
2022/05/10 20:47:09;;;;;;;5.80;1.58;;;;;;;;;;5093055;28;20042;-65
2022/05/10 20:49:36;;;;;;;5.10;1.13;;;;;;;;;;5092886;28;20456;-65
2022/05/10 20:52:04;;;;;;;3.00;1.05;;;;;;;;;;5092803;28;20451;-64
2022/05/10 20:54:31;;;;;;;3.85;1.38;;;;;;;;;;5092514;28;20048;-65
2022/05/10 20:56:58;;;;;;;3.60;1.05;;;;;;;;;;5092829;28;20073;-65
2022/05/10 20:59:26;;;;;;;2.58;0.95;;;;;;;;;;5107993;28;20040;-66
2022/05/10 21:01:53;;;;;;;1.33;0.93;;;;;;;;;;5092685;28;20044;-69
2022/05/10 21:04:20;;;;;;;3.05;1.20;;;;;;;;;;5092539;28;20039;-67
2022/05/10 21:09:33;;;;;;;4.28;1.17;;;;;;;;;;5092642;28;20068;-65
2022/05/10 21:12:01;;;;;;;3.03;1.33;;;;;;;;;;5092557;28;20672;-64
2022/05/10 21:14:46;;;;;;;3.65;1.30;;;;;;;;;;5106129;28;20054;-65
2022/05/10 21:17:32;;;;;;;4.80;1.20;;;;;;;;;;5113005;28;20042;-66
2022/05/10 21:20:18;;;;;;;2.60;0.98;;;;;;;;;;5092281;28;20512;-64
2022/05/10 21:23:04;;;;;;;6.57;2.60;;;;;;;;;;5092612;28;20908;-64
2022/05/10 21:25:51;;;;;;;4.10;1.35;;;;;;;;;;5091957;28;20167;-64
2022/05/10 21:28:20;;;;;;;5.38;1.27;;;;;;;;;;5092158;28;20054;-64
2022/05/10 21:33:33;;;;;;;3.85;1.70;;;;;;;;;;5092111;28;20040;-65
2022/05/10 21:36:00;;;;;;;2.92;1.27;;;;;;;;;;5091905;28;20067;-64
2022/05/10 21:38:28;;;;;;;4.90;1.58;;;;;;;;;;5091841;28;20492;-64
2022/05/10 21:40:56;;;;;;;2.83;1.10;;;;;;;;;;5092046;28;20040;-64
2022/05/10 21:43:24;;;;;;;2.47;1.00;;;;;;;;;;5090706;28;20040;-64
2022/05/10 21:45:54;;;;;;;4.82;1.88;;;;;;;;;;5090554;28;20572;-65
2022/05/10 21:48:25;;;;;;;2.42;1.00;;;;;;;;;;5091799;28;20089;-64
2022/05/10 21:50:58;;;;;;;3.75;2.00;;;;;;;;;;5091644;28;20134;-64
2022/05/10 21:53:27;;;;;;;4.28;1.55;;;;;;;;;;5090421;28;20131;-64
2022/05/10 21:55:55;;;;;;;2.22;1.10;;;;;;;;;;5091517;28;20046;-70
2022/05/10 21:58:23;;;;;;;5.05;1.38;;;;;;;;;;5091607;28;20038;-67
2022/05/10 22:00:51;;;;;;;2.15;1.15;;;;;;;;;;5091728;28;20123;-67
2022/05/10 22:03:23;;;;;;;4.05;1.27;;;;;;;;;;5090848;28;20648;-65
2022/05/10 22:05:57;;;;;;;4.07;1.30;;;;;;;;;;5091540;28;20054;-67
2022/05/10 22:08:24;;;;;;;3.17;1.23;;;;;;;;;;5091498;28;20153;-66
2022/05/10 22:10:51;;;;;;;4.07;1.20;;;;;;;;;;5103919;28;20047;-68
2022/05/10 22:13:19;;;;;;;4.47;1.42;;;;;;;;;;5111607;28;20233;-65
2022/05/10 22:15:49;;;;;;;4.03;1.45;;;;;;;;;;5111602;28;20093;-63
2022/05/10 22:18:17;;;;;;;2.08;1.02;;;;;;;;;;5111679;28;20485;-64
2022/05/10 22:20:44;;;;;;;3.20;1.25;;;;;;;;;;5111673;28;20044;-63
2022/05/10 22:23:12;;;;;;;4.20;1.40;;;;;;;;;;5111785;28;20092;-68
2022/05/10 22:25:39;;;;;;;5.72;1.92;;;;;;;;;;5111500;28;20054;-64
2022/05/10 22:28:06;;;;;;;3.35;1.50;;;;;;;;;;5111371;28;20726;-66
2022/05/10 22:30:34;;;;;;;2.97;1.40;;;;;;;;;;5111349;28;20401;-64
2022/05/10 22:33:02;;;;;;;3.70;1.13;;;;;;;;;;5111479;28;20039;-64
2022/05/10 22:35:29;;;;;;;3.70;1.30;;;;;;;;;;5111455;28;20044;-65
2022/05/10 22:37:56;;;;;;;6.28;1.52;;;;;;;;;;5111547;28;20035;-63
2022/05/10 22:40:25;;;;;;;4.63;1.45;;;;;;;;;;5111222;28;20493;-64
2022/05/10 22:42:52;;;;;;;3.22;1.35;;;;;;;;;;5111226;28;20050;-64
2022/05/10 22:45:21;;;;;;;3.05;1.30;;;;;;;;;;5111355;28;20071;-63
2022/05/10 22:47:48;;;;;;;4.68;1.27;;;;;;;;;;5111252;28;20088;-64
2022/05/10 22:50:18;;;;;;;4.13;1.40;;;;;;;;;;5109874;28;20036;-64
2022/05/10 22:52:45;;;;;;;4.00;1.40;;;;;;;;;;5110008;28;20100;-64
2022/05/10 22:55:12;;;;;;;6.93;1.60;;;;;;;;;;5111182;28;20039;-65
2022/05/10 22:57:39;;;;;;;3.88;1.35;;;;;;;;;;5111283;28;20463;-64
2022/05/10 23:00:10;;;;;;;4.88;1.25;;;;;;;;;;5111089;28;20040;-68
2022/05/10 23:02:39;;;;;;;3.22;1.38;;;;;;;;;;5111154;28;20043;-68
2022/05/10 23:05:07;;;;;;;4.18;1.50;;;;;;;;;;5111228;28;20050;-64
2022/05/10 23:07:35;;;;;;;2.03;1.10;;;;;;;;;;5110837;28;20078;-64
2022/05/10 23:10:03;;;;;;;2.05;1.00;;;;;;;;;;5111019;28;20044;-65
2022/05/10 23:12:30;;;;;;;5.10;1.35;;;;;;;;;;5111028;28;20085;-63
2022/05/10 23:14:57;;;;;;;4.60;1.40;;;;;;;;;;5112890;28;20047;-64
2022/05/10 23:17:25;;;;;;;3.55;1.20;;;;;;;;;;5115054;28;20038;-63
2022/05/10 23:19:52;;;;;;;4.97;1.80;;;;;;;;;;5115094;28;20036;-64
2022/05/10 23:22:19;;;;;;;5.90;1.50;;;;;;;;;;5114859;28;20066;-64
2022/05/10 23:24:46;;;;;;;2.25;1.27;;;;;;;;;;5115362;27;20389;-67
2022/05/10 23:27:13;;;;;;;4.95;1.42;;;;;;;;;;5115007;28;20039;-66
2022/05/10 23:29:40;;;;;;;6.25;1.73;;;;;;;;;;5115054;28;20069;-63
2022/05/10 23:32:08;;;;;;;5.72;2.05;;;;;;;;;;5114919;28;20104;-64
2022/05/10 23:34:35;;;;;;;4.82;1.75;;;;;;;;;;5113408;28;20390;-65
2022/05/10 23:37:03;;;;;;;7.07;1.50;;;;;;;;;;5114626;28;20047;-64
2022/05/10 23:39:30;;;;;;;3.65;1.52;;;;;;;;;;5114793;28;20401;-64
2022/05/10 23:41:58;;;;;;;5.93;1.67;;;;;;;;;;5114605;28;20104;-64
2022/05/10 23:44:25;;;;;;;4.13;1.42;;;;;;;;;;5114596;28;20044;-63
2022/05/10 23:46:52;;;;;;;6.15;1.40;;;;;;;;;;5113391;28;20074;-69
2022/05/10 23:49:25;;;;;;;5.07;1.80;;;;;;;;;;5113121;28;20052;-64
2022/05/10 23:51:55;;;;;;;4.95;1.70;;;;;;;;;;5114451;28;20122;-63
2022/05/10 23:54:24;;;;;;;5.10;1.40;;;;;;;;;;5114159;28;20044;-63
2022/05/10 23:56:52;;;;;;;6.07;1.60;;;;;;;;;;5113474;28;20106;-64
2022/05/10 23:59:20;;;;;;;4.15;1.83;;;;;;;;;;5114059;28;20040;-66
